Time;durP1;ratioP1;P1;durP2;ratioP2;P2;SDS_P1;SDS_P2;PMS_P1;PMS_P2;Temp;Humidity;BMP_temperature;BMP_pressure;BME280_temperature;BME280_humidity;BME280_pressure;Samples;Min_cycle;Max_cycle;Signal;HPM_P1;HPM_P2
2022/08/07 00:01:33;;;;;;;5.65;4.97;;;;;;;;;;5082542;27;20235;-59
2022/08/07 00:04:01;;;;;;;4.75;3.83;;;;;;;;;;5076906;28;20318;-59
2022/08/07 00:06:27;;;;;;;6.18;4.70;;;;;;;;;;5080445;27;20242;-59
2022/08/07 00:08:53;;;;;;;6.38;4.45;;;;;;;;;;5084256;27;20226;-59
2022/08/07 00:11:20;;;;;;;5.13;4.00;;;;;;;;;;5080651;27;20258;-59
2022/08/07 00:13:46;;;;;;;6.32;5.00;;;;;;;;;;5082502;27;20301;-60
2022/08/07 00:16:13;;;;;;;5.03;4.53;;;;;;;;;;5085588;27;20234;-58
2022/08/07 00:18:39;;;;;;;5.22;4.53;;;;;;;;;;5082597;27;20238;-59
2022/08/07 00:21:08;;;;;;;3.85;3.45;;;;;;;;;;5081024;27;20234;-58
2022/08/07 00:23:36;;;;;;;7.35;4.15;;;;;;;;;;5082421;28;20233;-58
2022/08/07 00:26:04;;;;;;;5.05;4.40;;;;;;;;;;5082578;27;20265;-58
2022/08/07 00:28:30;;;;;;;6.70;4.53;;;;;;;;;;5088772;27;20235;-57
2022/08/07 00:30:57;;;;;;;4.40;4.00;;;;;;;;;;5084552;27;20249;-59
2022/08/07 00:33:27;;;;;;;8.20;5.90;;;;;;;;;;5084543;27;20227;-58
2022/08/07 00:35:53;;;;;;;8.48;6.38;;;;;;;;;;5077617;27;20709;-58
2022/08/07 00:38:21;;;;;;;6.68;5.45;;;;;;;;;;5078146;27;20238;-58
2022/08/07 00:40:47;;;;;;;4.85;4.32;;;;;;;;;;5075774;28;20242;-58
2022/08/07 00:43:15;;;;;;;4.63;4.20;;;;;;;;;;5068793;28;20235;-58
2022/08/07 00:45:42;;;;;;;7.07;5.00;;;;;;;;;;5068568;27;20234;-58
2022/08/07 00:48:09;;;;;;;5.80;4.47;;;;;;;;;;5086096;27;20237;-58
2022/08/07 00:50:35;;;;;;;10.98;5.95;;;;;;;;;;5080080;27;20246;-58
2022/08/07 00:53:02;;;;;;;9.60;6.70;;;;;;;;;;5087439;27;20241;-58
2022/08/07 00:55:30;;;;;;;7.90;7.07;;;;;;;;;;5087226;28;20235;-57
2022/08/07 00:57:56;;;;;;;8.63;6.90;;;;;;;;;;5088092;28;20245;-58
2022/08/07 01:00:23;;;;;;;6.00;5.40;;;;;;;;;;5087472;27;20704;-58
2022/08/07 01:02:49;;;;;;;7.65;6.90;;;;;;;;;;5086318;27;20276;-57
2022/08/07 01:05:16;;;;;;;9.63;7.53;;;;;;;;;;5082047;27;20267;-63
2022/08/07 01:07:42;;;;;;;9.13;7.35;;;;;;;;;;5087491;27;20222;-59
2022/08/07 01:10:09;;;;;;;7.18;6.30;;;;;;;;;;5087728;27;20914;-57
2022/08/07 01:12:37;;;;;;;5.68;5.18;;;;;;;;;;5085510;27;20631;-58
2022/08/07 01:15:04;;;;;;;5.47;4.85;;;;;;;;;;5087665;27;20249;-58
2022/08/07 01:17:31;;;;;;;4.85;4.35;;;;;;;;;;5086024;27;20724;-58
2022/08/07 01:20:01;;;;;;;5.88;5.25;;;;;;;;;;5087746;27;20338;-58
2022/08/07 01:22:29;;;;;;;5.93;5.10;;;;;;;;;;5088218;27;20230;-57
2022/08/07 01:24:57;;;;;;;4.13;3.72;;;;;;;;;;5092533;27;20318;-59
2022/08/07 01:27:23;;;;;;;5.05;4.53;;;;;;;;;;5086114;27;20240;-59
2022/08/07 01:29:50;;;;;;;5.07;4.57;;;;;;;;;;5087822;27;20239;-58
2022/08/07 01:32:17;;;;;;;5.50;4.57;;;;;;;;;;5069523;28;20233;-58
2022/08/07 01:34:44;;;;;;;5.05;4.28;;;;;;;;;;5082616;27;20241;-58
2022/08/07 01:37:12;;;;;;;9.13;6.93;;;;;;;;;;5086599;27;20234;-59
2022/08/07 01:39:40;;;;;;;9.75;6.85;;;;;;;;;;5078574;27;20329;-58
2022/08/07 01:42:06;;;;;;;7.53;6.55;;;;;;;;;;5085089;27;20262;-58
2022/08/07 01:44:34;;;;;;;7.43;4.38;;;;;;;;;;5086076;27;20230;-59
2022/08/07 01:47:00;;;;;;;3.47;3.05;;;;;;;;;;5086971;27;20651;-58
2022/08/07 01:49:27;;;;;;;8.07;4.22;;;;;;;;;;5085387;27;20613;-59
2022/08/07 01:51:54;;;;;;;5.05;4.57;;;;;;;;;;5086763;27;20239;-58
2022/08/07 01:54:21;;;;;;;4.38;3.95;;;;;;;;;;5091257;27;20926;-58
2022/08/07 01:56:52;;;;;;;4.45;3.90;;;;;;;;;;5088110;27;20234;-58
2022/08/07 01:59:22;;;;;;;6.90;4.18;;;;;;;;;;5084550;27;20245;-59
2022/08/07 02:01:54;;;;;;;6.13;4.35;;;;;;;;;;5086378;27;20577;-58
2022/08/07 02:04:25;;;;;;;6.65;4.25;;;;;;;;;;5086409;27;20231;-58
2022/08/07 02:06:52;;;;;;;6.20;4.00;;;;;;;;;;5090261;27;20241;-58
2022/08/07 02:09:20;;;;;;;4.30;3.90;;;;;;;;;;5090591;27;20239;-59
2022/08/07 02:11:48;;;;;;;5.10;3.83;;;;;;;;;;5089346;27;20242;-59
2022/08/07 02:14:17;;;;;;;4.45;4.03;;;;;;;;;;5067444;28;20230;-58
2022/08/07 02:16:44;;;;;;;6.20;4.82;;;;;;;;;;5083109;27;20723;-58
2022/08/07 02:19:13;;;;;;;4.63;4.22;;;;;;;;;;5089793;27;20233;-59
2022/08/07 02:21:40;;;;;;;4.70;4.30;;;;;;;;;;5076032;27;20244;-59
2022/08/07 02:24:14;;;;;;;5.55;5.05;;;;;;;;;;5094298;27;20234;-57
2022/08/07 02:26:40;;;;;;;5.32;4.82;;;;;;;;;;5082974;27;20232;-58
2022/08/07 02:29:08;;;;;;;7.82;6.93;;;;;;;;;;5079524;27;20231;-59
2022/08/07 02:31:36;;;;;;;6.53;5.93;;;;;;;;;;5074109;27;20249;-58
2022/08/07 02:34:04;;;;;;;6.32;5.65;;;;;;;;;;5089300;27;20592;-58
2022/08/07 02:36:31;;;;;;;4.95;4.47;;;;;;;;;;5079639;27;20236;-58
2022/08/07 02:38:58;;;;;;;4.65;4.13;;;;;;;;;;5086710;28;20606;-60
2022/08/07 02:41:25;;;;;;;5.20;3.70;;;;;;;;;;5077493;27;20246;-58
2022/08/07 02:43:52;;;;;;;6.00;4.07;;;;;;;;;;5066419;27;20227;-58
2022/08/07 02:46:19;;;;;;;6.47;4.45;;;;;;;;;;5085138;27;20238;-58
2022/08/07 02:48:48;;;;;;;7.80;4.65;;;;;;;;;;5083770;27;20254;-59
2022/08/07 02:51:16;;;;;;;7.10;5.07;;;;;;;;;;5087801;27;20715;-58
2022/08/07 02:53:44;;;;;;;8.00;5.75;;;;;;;;;;5081171;27;20818;-58
2022/08/07 02:56:12;;;;;;;6.05;5.40;;;;;;;;;;5089442;27;21175;-58
2022/08/07 02:58:39;;;;;;;4.95;4.30;;;;;;;;;;5078705;28;20235;-59
2022/08/07 03:01:06;;;;;;;4.05;3.65;;;;;;;;;;5070446;27;20733;-59
2022/08/07 03:03:34;;;;;;;3.97;3.67;;;;;;;;;;5085827;27;20237;-59
2022/08/07 03:06:02;;;;;;;3.67;3.38;;;;;;;;;;5094178;27;20230;-59
2022/08/07 03:08:29;;;;;;;3.53;3.22;;;;;;;;;;5080662;27;20230;-57
2022/08/07 03:10:56;;;;;;;5.20;4.70;;;;;;;;;;5085298;27;20234;-59
2022/08/07 03:13:22;;;;;;;5.05;4.53;;;;;;;;;;5091311;27;20240;-58
2022/08/07 03:15:49;;;;;;;7.60;5.30;;;;;;;;;;5100379;27;20236;-59
2022/08/07 03:18:16;;;;;;;5.45;5.05;;;;;;;;;;5084465;27;20234;-58
2022/08/07 03:20:44;;;;;;;10.73;5.85;;;;;;;;;;5075966;28;20234;-58
2022/08/07 03:23:12;;;;;;;6.63;5.82;;;;;;;;;;5085245;27;20272;-57
2022/08/07 03:25:39;;;;;;;7.13;5.75;;;;;;;;;;5091367;27;20739;-58
2022/08/07 03:28:07;;;;;;;9.45;6.20;;;;;;;;;;5085729;27;20324;-58
2022/08/07 03:30:34;;;;;;;6.00;5.35;;;;;;;;;;5073416;27;20222;-58
2022/08/07 03:33:01;;;;;;;7.40;5.10;;;;;;;;;;5085538;27;20238;-58
2022/08/07 03:35:28;;;;;;;5.30;4.80;;;;;;;;;;5079578;27;20234;-58
2022/08/07 03:38:00;;;;;;;5.03;4.35;;;;;;;;;;5084428;27;20230;-59
2022/08/07 03:40:28;;;;;;;4.40;4.10;;;;;;;;;;5084552;27;20258;-58
2022/08/07 03:42:55;;;;;;;8.32;3.92;;;;;;;;;;5088091;27;20226;-58
2022/08/07 03:45:22;;;;;;;3.90;3.60;;;;;;;;;;5071345;27;20281;-59
2022/08/07 03:47:50;;;;;;;4.95;3.75;;;;;;;;;;5075154;27;20700;-59
2022/08/07 03:50:19;;;;;;;4.18;3.67;;;;;;;;;;5078435;27;20235;-59
2022/08/07 03:52:46;;;;;;;4.07;3.70;;;;;;;;;;5090083;27;20226;-59
2022/08/07 03:55:13;;;;;;;3.83;3.53;;;;;;;;;;5085201;28;20226;-59
2022/08/07 03:57:41;;;;;;;4.45;3.45;;;;;;;;;;5084505;27;20230;-60
2022/08/07 04:00:08;;;;;;;4.03;3.63;;;;;;;;;;5094181;27;20734;-59
2022/08/07 04:02:35;;;;;;;4.13;3.47;;;;;;;;;;5074481;27;20767;-57
2022/08/07 04:05:01;;;;;;;4.22;3.53;;;;;;;;;;5086090;27;20662;-58
2022/08/07 04:07:27;;;;;;;4.40;4.00;;;;;;;;;;5081237;27;20231;-59
2022/08/07 04:09:54;;;;;;;6.13;3.58;;;;;;;;;;5096491;27;20230;-59
2022/08/07 04:12:20;;;;;;;5.05;3.70;;;;;;;;;;5089873;27;20322;-58
2022/08/07 04:14:49;;;;;;;3.80;3.50;;;;;;;;;;5075676;28;20231;-62
2022/08/07 04:17:15;;;;;;;3.47;3.17;;;;;;;;;;5089523;27;20592;-58
2022/08/07 04:19:42;;;;;;;3.90;3.58;;;;;;;;;;5089464;27;20231;-59
2022/08/07 04:22:08;;;;;;;3.53;3.22;;;;;;;;;;5077339;27;20242;-60
2022/08/07 04:24:35;;;;;;;5.22;3.38;;;;;;;;;;5098775;27;20222;-59
2022/08/07 04:27:02;;;;;;;3.35;3.15;;;;;;;;;;5087763;27;20230;-59
2022/08/07 04:29:29;;;;;;;3.58;3.17;;;;;;;;;;5073223;27;20276;-59
2022/08/07 04:31:57;;;;;;;4.82;3.83;;;;;;;;;;5088648;27;20318;-59
2022/08/07 04:34:23;;;;;;;3.25;2.92;;;;;;;;;;5091574;27;20231;-58
2022/08/07 04:36:50;;;;;;;3.78;3.45;;;;;;;;;;5089033;27;20235;-57
2022/08/07 04:39:16;;;;;;;7.18;3.83;;;;;;;;;;5088427;27;20646;-58
2022/08/07 04:41:42;;;;;;;4.18;2.97;;;;;;;;;;5083141;27;20235;-58
2022/08/07 04:44:09;;;;;;;3.40;3.10;;;;;;;;;;5086409;27;20261;-58
2022/08/07 04:46:37;;;;;;;3.17;2.92;;;;;;;;;;5085273;27;20268;-59
2022/08/07 04:49:10;;;;;;;5.00;3.13;;;;;;;;;;5091237;27;20611;-58
2022/08/07 04:51:40;;;;;;;3.30;2.78;;;;;;;;;;5090287;27;20226;-58
2022/08/07 04:54:13;;;;;;;3.75;3.40;;;;;;;;;;5088458;27;20245;-59
2022/08/07 04:56:44;;;;;;;3.63;3.00;;;;;;;;;;5085574;27;20718;-58
2022/08/07 04:59:12;;;;;;;3.35;3.05;;;;;;;;;;5085345;27;20230;-58
2022/08/07 05:01:40;;;;;;;3.30;3.00;;;;;;;;;;5074492;28;20231;-59
2022/08/07 05:04:10;;;;;;;8.63;2.85;;;;;;;;;;5084128;27;20641;-57
2022/08/07 05:06:38;;;;;;;3.20;2.97;;;;;;;;;;5087704;27;20229;-58
2022/08/07 05:09:08;;;;;;;5.00;2.50;;;;;;;;;;5086688;27;20241;-59
2022/08/07 05:11:35;;;;;;;3.38;2.75;;;;;;;;;;5080027;27;20230;-59
2022/08/07 05:14:05;;;;;;;3.10;2.78;;;;;;;;;;5087796;27;20759;-58
2022/08/07 05:16:33;;;;;;;3.40;3.10;;;;;;;;;;5086222;27;20230;-58
2022/08/07 05:19:02;;;;;;;3.08;2.70;;;;;;;;;;5086479;27;20238;-58
2022/08/07 05:21:31;;;;;;;3.60;3.25;;;;;;;;;;5083471;27;20233;-58
2022/08/07 05:23:58;;;;;;;3.40;3.10;;;;;;;;;;5094624;27;20290;-59
2022/08/07 05:26:26;;;;;;;4.82;2.78;;;;;;;;;;5087446;27;20236;-57
2022/08/07 05:28:53;;;;;;;2.67;2.40;;;;;;;;;;5086086;27;20701;-58
2022/08/07 05:31:22;;;;;;;2.95;2.72;;;;;;;;;;5082543;27;20242;-58
2022/08/07 05:33:49;;;;;;;7.80;2.95;;;;;;;;;;5087046;27;20242;-58
2022/08/07 05:36:16;;;;;;;4.43;2.45;;;;;;;;;;5086577;27;20257;-57
2022/08/07 05:38:44;;;;;;;2.38;2.17;;;;;;;;;;5085633;27;20231;-57
2022/08/07 05:41:10;;;;;;;12.18;3.85;;;;;;;;;;5083505;27;20234;-57
2022/08/07 05:43:37;;;;;;;3.58;2.10;;;;;;;;;;5083174;27;25160;-57
2022/08/07 05:46:04;;;;;;;2.28;1.85;;;;;;;;;;5079911;27;20292;-57
2022/08/07 05:48:30;;;;;;;3.05;2.30;;;;;;;;;;5075264;27;20218;-58
2022/08/07 05:50:57;;;;;;;2.50;2.25;;;;;;;;;;5087022;27;20239;-58
2022/08/07 05:53:24;;;;;;;2.30;2.10;;;;;;;;;;5083849;27;20261;-59
2022/08/07 05:55:53;;;;;;;2.53;2.33;;;;;;;;;;5082480;27;20607;-57
2022/08/07 05:58:20;;;;;;;3.03;2.00;;;;;;;;;;5084697;27;20738;-58
2022/08/07 06:00:48;;;;;;;1.98;1.83;;;;;;;;;;5079868;27;20245;-58
2022/08/07 06:03:16;;;;;;;2.42;2.20;;;;;;;;;;5085201;28;20235;-58
2022/08/07 06:05:42;;;;;;;4.03;2.17;;;;;;;;;;5089043;27;20736;-59
2022/08/07 06:08:09;;;;;;;5.35;2.40;;;;;;;;;;5093476;27;20229;-58
2022/08/07 06:10:36;;;;;;;2.00;1.80;;;;;;;;;;5100115;27;20237;-58
2022/08/07 06:13:04;;;;;;;5.15;2.53;;;;;;;;;;5095155;27;20237;-58
2022/08/07 06:15:31;;;;;;;3.70;2.33;;;;;;;;;;5066217;28;20311;-59
2022/08/07 06:17:58;;;;;;;2.20;2.00;;;;;;;;;;5082791;27;20256;-57
2022/08/07 06:20:25;;;;;;;3.58;1.88;;;;;;;;;;5096291;27;20229;-59
2022/08/07 06:22:52;;;;;;;3.50;2.20;;;;;;;;;;5089759;27;20234;-58
2022/08/07 06:25:18;;;;;;;2.30;1.50;;;;;;;;;;5096247;27;20233;-58
2022/08/07 06:27:44;;;;;;;2.05;1.60;;;;;;;;;;5087119;28;20230;-57
2022/08/07 06:30:13;;;;;;;3.08;1.98;;;;;;;;;;5084086;27;20239;-57
2022/08/07 06:32:39;;;;;;;3.67;1.83;;;;;;;;;;5079064;28;20249;-57
2022/08/07 06:35:06;;;;;;;1.90;1.70;;;;;;;;;;5086153;27;20241;-58
2022/08/07 06:37:32;;;;;;;3.53;1.77;;;;;;;;;;5086150;27;20236;-58
2022/08/07 06:39:59;;;;;;;4.00;1.42;;;;;;;;;;5086223;27;20234;-58
2022/08/07 06:42:26;;;;;;;5.90;1.95;;;;;;;;;;5085403;27;20222;-58
2022/08/07 06:44:54;;;;;;;2.60;1.55;;;;;;;;;;5086902;27;20330;-58
2022/08/07 06:47:22;;;;;;;1.98;1.65;;;;;;;;;;5087074;27;20245;-58
2022/08/07 06:49:48;;;;;;;4.72;1.58;;;;;;;;;;5087003;27;20237;-65
2022/08/07 06:52:15;;;;;;;1.52;1.42;;;;;;;;;;5090303;28;20234;-59
2022/08/07 06:54:42;;;;;;;1.75;1.48;;;;;;;;;;5086566;27;20258;-57
2022/08/07 06:57:08;;;;;;;2.72;1.85;;;;;;;;;;5070490;27;20321;-58
2022/08/07 06:59:37;;;;;;;1.95;1.60;;;;;;;;;;5076058;27;20234;-58
2022/08/07 07:02:05;;;;;;;2.53;1.83;;;;;;;;;;5090919;27;20236;-58
2022/08/07 07:04:33;;;;;;;1.45;1.35;;;;;;;;;;5087758;27;20234;-58
2022/08/07 07:07:00;;;;;;;1.65;1.55;;;;;;;;;;5085728;27;20771;-59
2022/08/07 07:09:27;;;;;;;3.15;1.88;;;;;;;;;;5084424;27;20804;-58
2022/08/07 07:12:00;;;;;;;1.88;1.77;;;;;;;;;;5072721;27;20231;-60
2022/08/07 07:14:27;;;;;;;3.53;1.40;;;;;;;;;;5086812;27;20234;-60
2022/08/07 07:16:57;;;;;;;2.03;1.48;;;;;;;;;;5087856;27;20680;-58
2022/08/07 07:19:26;;;;;;;3.45;1.40;;;;;;;;;;5079775;27;21019;-58
2022/08/07 07:21:54;;;;;;;1.67;1.50;;;;;;;;;;5069332;28;20575;-58
2022/08/07 07:24:21;;;;;;;4.97;2.03;;;;;;;;;;5078969;27;20231;-59
2022/08/07 07:26:48;;;;;;;3.05;1.48;;;;;;;;;;5083270;27;20631;-57
2022/08/07 07:29:16;;;;;;;1.77;1.25;;;;;;;;;;5083661;27;20230;-58
2022/08/07 07:31:44;;;;;;;1.77;1.15;;;;;;;;;;5081966;27;20230;-60
2022/08/07 07:34:13;;;;;;;1.90;1.80;;;;;;;;;;5085359;27;20620;-59
2022/08/07 07:36:40;;;;;;;1.77;1.52;;;;;;;;;;5086002;27;20329;-59
2022/08/07 07:39:08;;;;;;;2.08;1.67;;;;;;;;;;5087840;27;20611;-59
2022/08/07 07:41:36;;;;;;;2.50;1.90;;;;;;;;;;5085580;27;20833;-59
2022/08/07 07:44:03;;;;;;;1.98;1.77;;;;;;;;;;5089502;27;20244;-57
2022/08/07 07:46:31;;;;;;;3.78;2.00;;;;;;;;;;5089468;27;20226;-58
2022/08/07 07:48:59;;;;;;;2.53;1.58;;;;;;;;;;5085938;27;20238;-61
2022/08/07 07:51:27;;;;;;;2.63;1.50;;;;;;;;;;5090562;27;20599;-58
2022/08/07 07:53:54;;;;;;;2.35;1.55;;;;;;;;;;5090178;27;20570;-59
2022/08/07 07:56:23;;;;;;;2.58;1.80;;;;;;;;;;5088882;27;20236;-59
2022/08/07 07:58:49;;;;;;;5.30;2.72;;;;;;;;;;5073920;28;20222;-59
2022/08/07 08:01:17;;;;;;;3.83;2.42;;;;;;;;;;5087365;27;20240;-60
2022/08/07 08:03:43;;;;;;;2.60;2.05;;;;;;;;;;5089745;28;20313;-59
2022/08/07 08:06:10;;;;;;;2.45;1.83;;;;;;;;;;5086935;27;20230;-60
2022/08/07 08:08:36;;;;;;;3.15;2.00;;;;;;;;;;5089679;27;20237;-59
2022/08/07 08:11:04;;;;;;;3.60;1.35;;;;;;;;;;5092187;27;20272;-59
2022/08/07 08:13:32;;;;;;;2.42;1.73;;;;;;;;;;5095221;27;20711;-60
2022/08/07 08:16:01;;;;;;;2.13;1.85;;;;;;;;;;5094513;27;20242;-58
2022/08/07 08:18:28;;;;;;;2.55;1.60;;;;;;;;;;5089257;27;20226;-58
2022/08/07 08:20:54;;;;;;;1.48;1.08;;;;;;;;;;5081864;27;20249;-59
2022/08/07 08:28:52;;;;;;;2.42;1.40;;;;;;;;;;5075024;27;20233;-56
2022/08/07 08:31:21;;;;;;;2.45;1.20;;;;;;;;;;5085103;27;20235;-55
2022/08/07 08:33:48;;;;;;;2.45;1.20;;;;;;;;;;5070365;27;20231;-55
2022/08/07 08:36:15;;;;;;;1.88;1.35;;;;;;;;;;5076203;27;20231;-55
2022/08/07 08:38:43;;;;;;;2.90;1.40;;;;;;;;;;5078193;28;20231;-56
2022/08/07 08:41:13;;;;;;;2.40;1.45;;;;;;;;;;5076504;27;20739;-58
2022/08/07 08:43:45;;;;;;;1.52;1.30;;;;;;;;;;5080260;28;20239;-56
2022/08/07 08:46:16;;;;;;;3.83;1.48;;;;;;;;;;5079478;27;20275;-57
2022/08/07 08:48:45;;;;;;;2.40;1.60;;;;;;;;;;5077218;27;20231;-56
2022/08/07 08:51:16;;;;;;;6.15;5.18;;;;;;;;;;5074344;27;20234;-56
2022/08/07 08:53:44;;;;;;;1.52;1.42;;;;;;;;;;5074561;27;20936;-55
2022/08/07 08:56:12;;;;;;;4.40;1.75;;;;;;;;;;5071799;27;20241;-55
2022/08/07 08:58:43;;;;;;;1.25;1.15;;;;;;;;;;5071962;27;20231;-55
2022/08/07 09:01:12;;;;;;;4.15;1.42;;;;;;;;;;5084819;27;20242;-56
2022/08/07 09:03:44;;;;;;;1.40;1.30;;;;;;;;;;5082538;27;20238;-56
2022/08/07 09:06:16;;;;;;;2.15;1.60;;;;;;;;;;5084191;27;20227;-56
2022/08/07 09:08:48;;;;;;;9.80;2.03;;;;;;;;;;5076468;27;20227;-54
2022/08/07 09:11:17;;;;;;;3.15;1.65;;;;;;;;;;5081854;28;20239;-56
2022/08/07 09:13:50;;;;;;;1.55;1.42;;;;;;;;;;5083030;27;20279;-55
2022/08/07 09:16:19;;;;;;;1.33;1.23;;;;;;;;;;5079926;28;20235;-55
2022/08/07 09:18:56;;;;;;;1.55;1.45;;;;;;;;;;5082427;27;20230;-55
2022/08/07 09:21:28;;;;;;;2.90;1.42;;;;;;;;;;5078858;28;20234;-56
2022/08/07 09:23:56;;;;;;;5.30;2.20;;;;;;;;;;5076113;27;20226;-55
2022/08/07 09:26:27;;;;;;;1.85;1.73;;;;;;;;;;5080686;27;20235;-56
2022/08/07 09:28:54;;;;;;;1.77;1.48;;;;;;;;;;5080637;27;20254;-55
2022/08/07 09:31:25;;;;;;;2.05;1.33;;;;;;;;;;5077363;27;20235;-57
2022/08/07 09:33:58;;;;;;;3.00;1.52;;;;;;;;;;5080689;27;20237;-56
2022/08/07 09:36:29;;;;;;;2.50;1.15;;;;;;;;;;5081817;28;20230;-56
2022/08/07 09:39:00;;;;;;;1.10;1.00;;;;;;;;;;5081525;27;20227;-56
2022/08/07 09:41:30;;;;;;;1.42;1.33;;;;;;;;;;5077058;28;20226;-56
2022/08/07 09:44:01;;;;;;;1.70;1.10;;;;;;;;;;5079505;27;20612;-55
2022/08/07 09:46:33;;;;;;;2.45;1.10;;;;;;;;;;5082273;27;20238;-54
2022/08/07 09:49:03;;;;;;;3.28;1.38;;;;;;;;;;5079262;28;20720;-55
2022/08/07 09:51:40;;;;;;;3.20;1.15;;;;;;;;;;5080191;28;20288;-55
2022/08/07 09:54:10;;;;;;;1.85;1.45;;;;;;;;;;5082976;27;20302;-55
2022/08/07 09:56:54;;;;;;;1.90;1.15;;;;;;;;;;5084472;27;20229;-55
2022/08/07 09:59:38;;;;;;;1.27;1.00;;;;;;;;;;5053240;28;20689;-58
2022/08/07 10:02:12;;;;;;;1.30;1.20;;;;;;;;;;5075822;28;20253;-55
2022/08/07 10:04:59;;;;;;;2.15;1.58;;;;;;;;;;5079316;27;20230;-55
2022/08/07 10:07:43;;;;;;;7.35;1.30;;;;;;;;;;5080323;27;20222;-55
2022/08/07 10:10:23;;;;;;;1.48;1.13;;;;;;;;;;5077136;28;20241;-56
2022/08/07 10:13:01;;;;;;;1.33;0.98;;;;;;;;;;5081160;28;20393;-55
2022/08/07 10:15:35;;;;;;;2.47;1.33;;;;;;;;;;5072494;27;20720;-55
2022/08/07 10:18:10;;;;;;;1.70;1.40;;;;;;;;;;5079582;27;20241;-55
2022/08/07 10:20:51;;;;;;;2.13;1.45;;;;;;;;;;5078153;27;20234;-55
2022/08/07 10:23:41;;;;;;;3.83;1.70;;;;;;;;;;5079056;27;20222;-56
2022/08/07 10:26:18;;;;;;;2.65;1.52;;;;;;;;;;5061037;27;20231;-56
2022/08/07 10:28:51;;;;;;;2.03;1.55;;;;;;;;;;5073231;27;20269;-55
2022/08/07 10:31:29;;;;;;;2.15;1.27;;;;;;;;;;5074041;27;20227;-56
2022/08/07 10:34:04;;;;;;;3.13;1.60;;;;;;;;;;5084019;27;20230;-56
2022/08/07 10:36:38;;;;;;;1.48;1.30;;;;;;;;;;5084268;27;20325;-55
2022/08/07 10:39:09;;;;;;;3.00;1.23;;;;;;;;;;5079393;27;20230;-56
2022/08/07 10:41:38;;;;;;;1.27;1.17;;;;;;;;;;5082758;27;20280;-55
2022/08/07 10:44:09;;;;;;;1.73;1.40;;;;;;;;;;5080559;27;20230;-55
2022/08/07 10:46:39;;;;;;;1.40;1.30;;;;;;;;;;5084060;27;20227;-55
2022/08/07 10:49:12;;;;;;;1.38;1.23;;;;;;;;;;5080688;27;20238;-55
2022/08/07 10:51:43;;;;;;;1.65;1.05;;;;;;;;;;5075295;27;20520;-55
2022/08/07 10:54:13;;;;;;;4.20;1.40;;;;;;;;;;5070165;27;20235;-55
2022/08/07 10:56:43;;;;;;;3.55;1.33;;;;;;;;;;5079224;27;20230;-55
2022/08/07 10:59:20;;;;;;;3.38;1.55;;;;;;;;;;5073942;27;20242;-56
2022/08/07 11:01:51;;;;;;;2.35;1.42;;;;;;;;;;5083358;27;20238;-55
2022/08/07 11:04:28;;;;;;;1.92;1.48;;;;;;;;;;5083101;27;20225;-56
2022/08/07 11:07:01;;;;;;;2.15;1.35;;;;;;;;;;5081912;27;20248;-56
2022/08/07 11:09:29;;;;;;;1.52;1.20;;;;;;;;;;5074056;27;20239;-56
2022/08/07 11:11:59;;;;;;;1.00;0.90;;;;;;;;;;5081977;27;20264;-55
2022/08/07 11:14:29;;;;;;;2.17;1.98;;;;;;;;;;5078834;27;20234;-55
2022/08/07 11:16:58;;;;;;;1.13;1.00;;;;;;;;;;5079968;27;20230;-58
2022/08/07 11:19:26;;;;;;;1.70;1.30;;;;;;;;;;5078565;27;20223;-55
2022/08/07 11:21:55;;;;;;;2.90;1.30;;;;;;;;;;5082876;27;20241;-55
2022/08/07 11:24:28;;;;;;;1.75;0.93;;;;;;;;;;5083417;27;20309;-57
2022/08/07 11:26:57;;;;;;;1.58;1.30;;;;;;;;;;5084428;27;20234;-56
2022/08/07 11:29:26;;;;;;;1.80;1.10;;;;;;;;;;5081255;27;20230;-54
2022/08/07 11:31:55;;;;;;;2.55;1.08;;;;;;;;;;5080669;27;20239;-55
2022/08/07 11:34:24;;;;;;;2.33;1.33;;;;;;;;;;5079017;27;20252;-56
2022/08/07 11:36:57;;;;;;;1.27;1.10;;;;;;;;;;5082516;27;20230;-55
2022/08/07 11:39:30;;;;;;;1.83;1.70;;;;;;;;;;5074941;28;20223;-56
2022/08/07 11:42:12;;;;;;;2.05;1.45;;;;;;;;;;5069923;28;20253;-56
2022/08/07 11:44:43;;;;;;;2.25;1.13;;;;;;;;;;5077176;27;20230;-54
2022/08/07 11:47:17;;;;;;;3.58;1.45;;;;;;;;;;5076836;28;20231;-56
2022/08/07 11:50:02;;;;;;;1.35;1.23;;;;;;;;;;5079386;28;20233;-55
2022/08/07 11:52:41;;;;;;;1.00;1.00;;;;;;;;;;5076272;27;20849;-56
2022/08/07 11:55:13;;;;;;;1.98;1.42;;;;;;;;;;5083370;27;20238;-56
2022/08/07 11:57:42;;;;;;;1.20;1.10;;;;;;;;;;5077504;27;20719;-55
2022/08/07 12:00:12;;;;;;;1.38;1.27;;;;;;;;;;5076398;27;20590;-54
2022/08/07 12:02:47;;;;;;;2.28;1.05;;;;;;;;;;5079550;27;20307;-56
2022/08/07 12:05:17;;;;;;;1.67;1.25;;;;;;;;;;5086016;27;20230;-55
2022/08/07 12:07:45;;;;;;;1.33;1.23;;;;;;;;;;5070580;27;20230;-56
2022/08/07 12:10:17;;;;;;;1.23;1.10;;;;;;;;;;5082812;27;20261;-55
2022/08/07 12:12:45;;;;;;;2.30;1.40;;;;;;;;;;5078485;28;20341;-54
2022/08/07 12:15:14;;;;;;;1.67;1.40;;;;;;;;;;5078603;27;20243;-56
2022/08/07 12:17:41;;;;;;;2.28;0.88;;;;;;;;;;5076782;28;20664;-55
2022/08/07 12:20:09;;;;;;;2.38;1.33;;;;;;;;;;5080441;27;20230;-57
2022/08/07 12:22:46;;;;;;;1.98;1.17;;;;;;;;;;5072559;27;20235;-56
2022/08/07 12:28:15;;;;;;;4.55;1.33;;;;;;;;;;5017514;28;20391;-55
2022/08/07 12:30:42;;;;;;;1.10;0.98;;;;;;;;;;5070003;27;20329;-54
2022/08/07 12:33:11;;;;;;;3.13;1.20;;;;;;;;;;5074645;27;20235;-55
2022/08/07 12:35:38;;;;;;;1.75;0.88;;;;;;;;;;5086029;27;20597;-55
2022/08/07 12:38:05;;;;;;;1.17;1.05;;;;;;;;;;5079719;27;20254;-56
2022/08/07 12:40:35;;;;;;;1.30;0.90;;;;;;;;;;5077184;28;20243;-55
2022/08/07 12:43:02;;;;;;;1.50;1.10;;;;;;;;;;5077375;28;20328;-57
2022/08/07 12:45:31;;;;;;;1.73;1.63;;;;;;;;;;5078489;27;20238;-55
2022/08/07 12:48:02;;;;;;;1.55;1.45;;;;;;;;;;5085904;28;20254;-55
2022/08/07 12:50:31;;;;;;;1.45;1.38;;;;;;;;;;5078400;28;20231;-55
2022/08/07 12:53:02;;;;;;;2.45;2.03;;;;;;;;;;5084523;28;20235;-55
2022/08/07 12:55:30;;;;;;;4.35;3.80;;;;;;;;;;5084359;27;20306;-56
2022/08/07 12:57:59;;;;;;;5.50;2.30;;;;;;;;;;5083040;27;20291;-54
2022/08/07 13:00:28;;;;;;;3.47;3.03;;;;;;;;;;5082398;27;20246;-55
2022/08/07 13:03:01;;;;;;;2.72;2.35;;;;;;;;;;5083177;28;20230;-55
2022/08/07 13:05:36;;;;;;;2.55;1.60;;;;;;;;;;5085173;27;20243;-55
2022/08/07 13:08:10;;;;;;;1.65;1.08;;;;;;;;;;5083915;28;20233;-55
2022/08/07 13:10:39;;;;;;;1.77;1.63;;;;;;;;;;5081642;28;20241;-55
2022/08/07 13:13:13;;;;;;;2.47;2.28;;;;;;;;;;5086139;27;20226;-56
2022/08/07 13:15:46;;;;;;;5.55;4.03;;;;;;;;;;5084579;27;20241;-56
2022/08/07 13:18:18;;;;;;;3.67;2.78;;;;;;;;;;5074824;27;20235;-55
2022/08/07 13:20:49;;;;;;;2.33;2.08;;;;;;;;;;5083436;27;20237;-56
2022/08/07 13:23:17;;;;;;;1.80;1.40;;;;;;;;;;5083141;28;20303;-55
2022/08/07 13:25:46;;;;;;;1.50;1.38;;;;;;;;;;5084641;28;20284;-56
2022/08/07 13:28:17;;;;;;;2.13;1.40;;;;;;;;;;5082489;27;20230;-55
2022/08/07 13:30:47;;;;;;;2.88;1.20;;;;;;;;;;5082423;27;20237;-56
2022/08/07 13:33:21;;;;;;;2.05;1.00;;;;;;;;;;5079674;27;20313;-54
2022/08/07 13:35:49;;;;;;;3.25;1.65;;;;;;;;;;5083432;27;20227;-55
2022/08/07 13:38:17;;;;;;;1.42;1.13;;;;;;;;;;5070545;27;20279;-55
2022/08/07 13:40:46;;;;;;;0.98;0.90;;;;;;;;;;5071829;28;20243;-55
2022/08/07 13:43:15;;;;;;;1.27;1.17;;;;;;;;;;5069014;28;20778;-56
2022/08/07 13:45:43;;;;;;;1.02;0.90;;;;;;;;;;5082891;27;20235;-56
2022/08/07 13:48:11;;;;;;;1.23;1.13;;;;;;;;;;5085935;27;20234;-55
2022/08/07 13:50:39;;;;;;;1.33;1.17;;;;;;;;;;5079915;27;20262;-56
2022/08/07 13:53:06;;;;;;;2.05;0.90;;;;;;;;;;5083260;27;20226;-54
2022/08/07 13:55:33;;;;;;;1.20;0.98;;;;;;;;;;5077221;27;20231;-56
2022/08/07 13:58:59;;;;;;;2.75;0.85;;;;;;;;;;5081075;28;20246;-56
2022/08/07 14:00:53;;;;;;;2.67;0.88;;;;;;;;;;5076184;28;20311;-55
2022/08/07 14:03:20;;;;;;;1.50;1.20;;;;;;;;;;5083683;27;20598;-56
2022/08/07 14:05:47;;;;;;;1.70;1.60;;;;;;;;;;5077331;28;20235;-56
2022/08/07 14:08:14;;;;;;;1.40;1.30;;;;;;;;;;5069307;27;20235;-56
2022/08/07 14:10:41;;;;;;;2.92;1.20;;;;;;;;;;5079436;27;20234;-56
2022/08/07 14:13:10;;;;;;;1.52;1.42;;;;;;;;;;5075312;28;20238;-55
2022/08/07 14:15:38;;;;;;;2.40;1.52;;;;;;;;;;5078087;27;20672;-56
2022/08/07 14:18:07;;;;;;;1.73;1.20;;;;;;;;;;5075888;27;20231;-55
2022/08/07 14:20:36;;;;;;;1.58;1.38;;;;;;;;;;5080341;28;21024;-55
2022/08/07 14:23:07;;;;;;;3.05;1.25;;;;;;;;;;5069780;27;20239;-56
2022/08/07 14:25:34;;;;;;;1.65;1.40;;;;;;;;;;5077459;27;20334;-55
2022/08/07 14:28:04;;;;;;;2.22;1.65;;;;;;;;;;5075867;27;20234;-55
2022/08/07 14:30:30;;;;;;;3.40;1.67;;;;;;;;;;5079050;27;20257;-55
2022/08/07 14:32:58;;;;;;;2.08;1.40;;;;;;;;;;5077332;27;20230;-56
2022/08/07 14:35:28;;;;;;;2.45;1.50;;;;;;;;;;5082890;27;20241;-54
2022/08/07 14:37:56;;;;;;;1.80;1.13;;;;;;;;;;5081615;27;20252;-54
2022/08/07 14:40:23;;;;;;;2.65;1.23;;;;;;;;;;5077851;28;20226;-56
2022/08/07 14:42:53;;;;;;;1.25;1.15;;;;;;;;;;5069693;28;20736;-55
2022/08/07 14:45:20;;;;;;;1.70;1.27;;;;;;;;;;5072816;27;20231;-56
2022/08/07 14:47:46;;;;;;;2.30;1.08;;;;;;;;;;5080797;28;20296;-55
2022/08/07 14:50:18;;;;;;;1.98;1.48;;;;;;;;;;5079004;28;20269;-55
2022/08/07 14:52:47;;;;;;;1.25;1.15;;;;;;;;;;5066821;27;20266;-55
2022/08/07 14:55:14;;;;;;;2.63;1.20;;;;;;;;;;5079949;28;20276;-55
2022/08/07 14:57:41;;;;;;;1.60;1.17;;;;;;;;;;5071407;27;20243;-55
2022/08/07 15:00:08;;;;;;;2.47;1.15;;;;;;;;;;5075034;27;20241;-53
2022/08/07 15:02:35;;;;;;;2.25;1.10;;;;;;;;;;5070214;28;20301;-55